createdAt,value
2022-12-11T00:09:30.035Z,-4.49
2022-12-11T00:19:34.766Z,-4.60
2022-12-11T00:29:38.443Z,-4.63
2022-12-11T00:39:42.131Z,-4.59
2022-12-11T00:49:49.779Z,-4.54
2022-12-11T00:59:54.450Z,-4.57
2022-12-11T01:10:17.624Z,-4.49
2022-12-11T01:20:25.381Z,-4.61
2022-12-11T01:30:30.863Z,-4.68
2022-12-11T01:40:34.534Z,-4.67
2022-12-11T01:50:49.414Z,-4.67
2022-12-11T02:00:54.309Z,-4.75
2022-12-11T02:11:11.841Z,-4.85
2022-12-11T02:21:28.756Z,-5.01
2022-12-11T02:31:42.732Z,-5.05
2022-12-11T02:41:51.674Z,-5.16
2022-12-11T02:51:57.133Z,-5.26
2022-12-11T03:02:01.479Z,-5.33
2022-12-11T03:12:07.133Z,-5.27
2022-12-11T03:22:15.893Z,-5.22
2022-12-11T03:32:24.784Z,-5.11
2022-12-11T03:42:29.487Z,-5.00
2022-12-11T03:52:33.803Z,-4.98
2022-12-11T04:02:37.487Z,-4.97
2022-12-11T04:12:41.224Z,-5.03
2022-12-11T04:23:03.603Z,-4.93
2022-12-11T04:33:07.324Z,-4.92
2022-12-11T04:43:10.887Z,-5.02
2022-12-11T04:53:14.774Z,-5.02
2022-12-11T05:03:18.765Z,-5.07
2022-12-11T05:13:22.518Z,-4.99
2022-12-11T05:23:26.868Z,-4.93
2022-12-11T05:33:31.071Z,-5.02
2022-12-11T05:43:37.169Z,-5.13
2022-12-11T05:53:42.051Z,-5.21
2022-12-11T06:03:46.088Z,-5.15
2022-12-11T06:13:50.727Z,-5.21
2022-12-11T06:23:58.770Z,-5.14
2022-12-11T06:34:02.563Z,-5.17
2022-12-11T06:44:06.243Z,-5.16
2022-12-11T06:54:09.897Z,-5.17
2022-12-11T07:04:13.781Z,-5.33
2022-12-11T07:14:17.522Z,-5.39
2022-12-11T07:24:21.185Z,-5.28
2022-12-11T07:34:24.994Z,-5.30
2022-12-11T07:44:29.244Z,-5.29
2022-12-11T07:54:33.350Z,-5.35
2022-12-11T08:04:37.148Z,-5.32
2022-12-11T08:14:40.909Z,-5.27
2022-12-11T08:24:48.019Z,-5.36
2022-12-11T08:34:56.785Z,-5.48
2022-12-11T08:45:01.732Z,-5.67
2022-12-11T08:55:06.195Z,-5.71
2022-12-11T09:05:10.592Z,-5.81
2022-12-11T09:15:14.656Z,-5.86
2022-12-11T09:25:18.262Z,-5.79
2022-12-11T09:35:22.110Z,-5.79
2022-12-11T09:45:26.220Z,-5.67
2022-12-11T09:55:44.006Z,-5.60
2022-12-11T10:06:02.637Z,-5.56
2022-12-11T10:16:14.885Z,-5.45
2022-12-11T10:26:21.506Z,-5.42
2022-12-11T10:36:37.613Z,-5.41
2022-12-11T10:46:41.680Z,-5.47
2022-12-11T10:56:48.605Z,-5.46
2022-12-11T11:07:13.837Z,-5.34
2022-12-11T11:17:18.037Z,-5.36
2022-12-11T11:27:39.796Z,-5.46
2022-12-11T11:37:53.663Z,-5.41
2022-12-11T11:48:27.638Z,-5.46
2022-12-11T11:58:42.038Z,-5.42
2022-12-11T12:08:49.064Z,-5.35
2022-12-11T12:19:07.233Z,-5.44
2022-12-11T12:29:45.220Z,-5.43
2022-12-11T12:39:54.954Z,-5.42
2022-12-11T12:50:00.421Z,-5.58
2022-12-11T13:00:12.566Z,-5.53
2022-12-11T13:10:28.498Z,-5.58
2022-12-11T13:20:34.683Z,-5.69
2022-12-11T13:30:38.790Z,-5.79
2022-12-11T13:40:44.571Z,-5.74
2022-12-11T13:50:50.402Z,-5.77
2022-12-11T14:01:21.720Z,-5.67
2022-12-11T14:11:30.196Z,-5.75
2022-12-11T14:21:35.191Z,-5.75
2022-12-11T14:31:44.492Z,-5.83
2022-12-11T14:42:13.635Z,-5.86
2022-12-11T14:52:29.631Z,-5.85
2022-12-11T15:02:36.512Z,-5.88
2022-12-11T15:12:45.544Z,-5.98
2022-12-11T15:22:49.769Z,-5.97
2022-12-11T15:33:12.043Z,-5.96
2022-12-11T15:43:15.849Z,-5.94
2022-12-11T15:53:19.877Z,-6.03
2022-12-11T16:03:24.566Z,-6.02
2022-12-11T16:13:28.678Z,-6.11
2022-12-11T16:23:32.538Z,-6.20
2022-12-11T16:33:36.221Z,-6.16
2022-12-11T16:43:41.020Z,-6.16
2022-12-11T16:53:44.768Z,-6.21
2022-12-11T17:03:48.763Z,-6.27
2022-12-11T17:13:58.053Z,-6.19
2022-12-11T17:24:01.901Z,-5.86
2022-12-11T17:34:06.574Z,-5.92
2022-12-11T17:44:10.536Z,-6.02
2022-12-11T17:54:14.323Z,-6.04
2022-12-11T18:04:18.204Z,-5.97
2022-12-11T18:14:22.725Z,-5.82
2022-12-11T18:24:31.976Z,-5.75
2022-12-11T18:34:35.958Z,-5.83
2022-12-11T18:44:39.912Z,-5.75
2022-12-11T18:54:49.530Z,-5.72
2022-12-11T19:04:53.345Z,-5.64
2022-12-11T19:14:57.153Z,-5.58
2022-12-11T19:25:01.475Z,-5.55
2022-12-11T19:35:10.100Z,-5.51
2022-12-11T19:45:23.604Z,-5.51
2022-12-11T19:55:27.351Z,-5.49
2022-12-11T20:05:32.567Z,-5.51
2022-12-11T20:15:39.224Z,-5.39
2022-12-11T20:25:43.250Z,-5.26
2022-12-11T20:35:47.258Z,-5.25
2022-12-11T20:45:51.515Z,-5.19
2022-12-11T20:55:56.143Z,-5.10
2022-12-11T21:05:59.959Z,-5.15
2022-12-11T21:16:06.565Z,-5.21
2022-12-11T21:26:10.572Z,-5.18
2022-12-11T21:36:15.669Z,-5.04
2022-12-11T21:46:23.006Z,-4.99
2022-12-11T21:56:29.060Z,-5.07
2022-12-11T22:06:33.804Z,-4.94
2022-12-11T22:16:37.679Z,-5.04
2022-12-11T22:26:41.397Z,-4.98
2022-12-11T22:36:45.030Z,-4.80
2022-12-11T22:46:50.845Z,-4.79
2022-12-11T22:56:54.799Z,-4.66
2022-12-11T23:06:58.852Z,-4.54
2022-12-11T23:17:02.520Z,-4.41
2022-12-11T23:27:06.475Z,-4.29
2022-12-11T23:37:10.519Z,-4.12
2022-12-11T23:47:14.149Z,-4.00
2022-12-11T23:57:17.794Z,-3.86
